sensor_id;sensor_type;location;lat;lon;timestamp;temperature;humidity
4757;DHT22;2392;52.578;13.426;2023-02-28T00:00:51;2.30;99.90
4757;DHT22;2392;52.578;13.426;2023-02-28T00:03:18;2.40;99.90
4757;DHT22;2392;52.578;13.426;2023-02-28T00:05:46;2.30;99.90
4757;DHT22;2392;52.578;13.426;2023-02-28T00:08:14;2.30;99.90
4757;DHT22;2392;52.578;13.426;2023-02-28T00:10:41;2.30;99.90
4757;DHT22;2392;52.578;13.426;2023-02-28T00:13:09;2.30;99.90
4757;DHT22;2392;52.578;13.426;2023-02-28T00:15:36;2.30;99.90
4757;DHT22;2392;52.578;13.426;2023-02-28T00:18:04;2.30;99.90
4757;DHT22;2392;52.578;13.426;2023-02-28T00:20:31;2.40;99.90
4757;DHT22;2392;52.578;13.426;2023-02-28T00:22:59;2.30;99.90
4757;DHT22;2392;52.578;13.426;2023-02-28T00:25:28;2.30;99.90
4757;DHT22;2392;52.578;13.426;2023-02-28T00:27:58;2.30;99.90
4757;DHT22;2392;52.578;13.426;2023-02-28T00:30:26;2.40;99.90
4757;DHT22;2392;52.578;13.426;2023-02-28T00:32:53;2.40;99.90
4757;DHT22;2392;52.578;13.426;2023-02-28T00:35:20;2.30;99.90
4757;DHT22;2392;52.578;13.426;2023-02-28T00:37:48;2.30;99.90
4757;DHT22;2392;52.578;13.426;2023-02-28T00:40:15;2.30;99.90
4757;DHT22;2392;52.578;13.426;2023-02-28T00:42:44;2.30;99.90
4757;DHT22;2392;52.578;13.426;2023-02-28T00:45:12;2.20;99.90
4757;DHT22;2392;52.578;13.426;2023-02-28T00:47:39;2.20;99.90
4757;DHT22;2392;52.578;13.426;2023-02-28T00:50:07;2.10;99.90
4757;DHT22;2392;52.578;13.426;2023-02-28T00:52:36;2.10;99.90
4757;DHT22;2392;52.578;13.426;2023-02-28T00:55:03;2.10;99.90
4757;DHT22;2392;52.578;13.426;2023-02-28T00:57:30;2.10;99.90
4757;DHT22;2392;52.578;13.426;2023-02-28T00:59:59;2.20;99.90
4757;DHT22;2392;52.578;13.426;2023-02-28T01:02:26;2.20;99.90
4757;DHT22;2392;52.578;13.426;2023-02-28T01:04:53;2.20;99.90
4757;DHT22;2392;52.578;13.426;2023-02-28T01:07:22;2.20;99.90
4757;DHT22;2392;52.578;13.426;2023-02-28T01:09:49;2.30;99.90
4757;DHT22;2392;52.578;13.426;2023-02-28T01:12:16;2.30;99.90
4757;DHT22;2392;52.578;13.426;2023-02-28T01:14:46;2.30;99.90
4757;DHT22;2392;52.578;13.426;2023-02-28T01:17:14;2.30;99.90
4757;DHT22;2392;52.578;13.426;2023-02-28T01:19:41;2.30;99.90
4757;DHT22;2392;52.578;13.426;2023-02-28T01:22:09;2.30;99.90
4757;DHT22;2392;52.578;13.426;2023-02-28T01:24:37;2.20;99.90
4757;DHT22;2392;52.578;13.426;2023-02-28T01:27:04;2.20;99.90
4757;DHT22;2392;52.578;13.426;2023-02-28T01:29:31;2.20;99.90
4757;DHT22;2392;52.578;13.426;2023-02-28T01:31:58;2.20;99.90
4757;DHT22;2392;52.578;13.426;2023-02-28T01:34:27;2.10;99.90
4757;DHT22;2392;52.578;13.426;2023-02-28T01:36:54;2.10;99.90
4757;DHT22;2392;52.578;13.426;2023-02-28T01:39:21;2.00;99.90
4757;DHT22;2392;52.578;13.426;2023-02-28T01:41:49;2.00;99.90
4757;DHT22;2392;52.578;13.426;2023-02-28T01:44:56;1.90;99.90
4757;DHT22;2392;52.578;13.426;2023-02-28T01:47:26;1.90;99.90
4757;DHT22;2392;52.578;13.426;2023-02-28T01:49:58;1.90;99.90
4757;DHT22;2392;52.578;13.426;2023-02-28T01:52:26;1.80;99.90
4757;DHT22;2392;52.578;13.426;2023-02-28T01:54:56;1.80;99.90
4757;DHT22;2392;52.578;13.426;2023-02-28T01:57:29;1.70;99.90
4757;DHT22;2392;52.578;13.426;2023-02-28T02:00:05;1.80;99.90
4757;DHT22;2392;52.578;13.426;2023-02-28T02:02:48;1.80;99.90
4757;DHT22;2392;52.578;13.426;2023-02-28T02:05:20;1.80;99.90
4757;DHT22;2392;52.578;13.426;2023-02-28T02:07:49;1.70;99.90
4757;DHT22;2392;52.578;13.426;2023-02-28T02:10:18;1.70;99.90
4757;DHT22;2392;52.578;13.426;2023-02-28T02:15:42;1.50;99.90
4757;DHT22;2392;52.578;13.426;2023-02-28T02:18:19;1.50;99.90
4757;DHT22;2392;52.578;13.426;2023-02-28T02:27:25;1.20;99.90
4757;DHT22;2392;52.578;13.426;2023-02-28T02:30:32;1.10;99.90
4757;DHT22;2392;52.578;13.426;2023-02-28T02:33:11;1.10;99.90
4757;DHT22;2392;52.578;13.426;2023-02-28T02:35:49;1.00;99.90
4757;DHT22;2392;52.578;13.426;2023-02-28T02:38:24;1.00;99.90
4757;DHT22;2392;52.578;13.426;2023-02-28T02:40:58;1.00;99.90
4757;DHT22;2392;52.578;13.426;2023-02-28T02:43:34;1.00;99.90
4757;DHT22;2392;52.578;13.426;2023-02-28T02:46:05;0.90;99.90
4757;DHT22;2392;52.578;13.426;2023-02-28T02:48:36;0.90;99.90
4757;DHT22;2392;52.578;13.426;2023-02-28T02:51:11;0.90;99.90
4757;DHT22;2392;52.578;13.426;2023-02-28T02:53:46;0.90;99.90
4757;DHT22;2392;52.578;13.426;2023-02-28T02:56:17;0.90;99.90
4757;DHT22;2392;52.578;13.426;2023-02-28T02:58:47;0.80;99.90
4757;DHT22;2392;52.578;13.426;2023-02-28T03:01:19;0.70;99.90
4757;DHT22;2392;52.578;13.426;2023-02-28T03:03:56;0.70;99.90
4757;DHT22;2392;52.578;13.426;2023-02-28T03:06:25;0.60;99.90
4757;DHT22;2392;52.578;13.426;2023-02-28T03:08:52;0.50;99.90
4757;DHT22;2392;52.578;13.426;2023-02-28T03:11:22;0.50;99.90
4757;DHT22;2392;52.578;13.426;2023-02-28T03:14:07;0.50;99.90
4757;DHT22;2392;52.578;13.426;2023-02-28T03:17:03;0.40;99.90
4757;DHT22;2392;52.578;13.426;2023-02-28T03:19:52;0.40;99.90
4757;DHT22;2392;52.578;13.426;2023-02-28T03:22:53;0.30;99.90
4757;DHT22;2392;52.578;13.426;2023-02-28T03:25:31;0.40;99.90
4757;DHT22;2392;52.578;13.426;2023-02-28T03:28:04;0.40;99.90
4757;DHT22;2392;52.578;13.426;2023-02-28T03:30:38;0.30;99.90
4757;DHT22;2392;52.578;13.426;2023-02-28T03:33:10;0.40;99.90
4757;DHT22;2392;52.578;13.426;2023-02-28T03:35:44;0.40;99.90
4757;DHT22;2392;52.578;13.426;2023-02-28T03:38:17;0.40;99.90
4757;DHT22;2392;52.578;13.426;2023-02-28T03:40:49;0.40;99.90
4757;DHT22;2392;52.578;13.426;2023-02-28T03:43:21;0.40;99.90
4757;DHT22;2392;52.578;13.426;2023-02-28T03:45:50;0.40;99.90
4757;DHT22;2392;52.578;13.426;2023-02-28T03:48:22;0.30;99.90
4757;DHT22;2392;52.578;13.426;2023-02-28T03:50:54;0.40;99.90
4757;DHT22;2392;52.578;13.426;2023-02-28T03:53:26;0.30;99.90
4757;DHT22;2392;52.578;13.426;2023-02-28T03:55:56;0.30;99.90
4757;DHT22;2392;52.578;13.426;2023-02-28T03:58:29;0.30;99.90
4757;DHT22;2392;52.578;13.426;2023-02-28T04:01:00;0.30;99.90
4757;DHT22;2392;52.578;13.426;2023-02-28T04:03:36;0.20;99.90
4757;DHT22;2392;52.578;13.426;2023-02-28T04:06:04;0.20;99.90
4757;DHT22;2392;52.578;13.426;2023-02-28T04:08:33;0.20;99.90
4757;DHT22;2392;52.578;13.426;2023-02-28T04:11:03;0.20;99.90
4757;DHT22;2392;52.578;13.426;2023-02-28T04:13:32;0.20;99.90
4757;DHT22;2392;52.578;13.426;2023-02-28T04:15:59;0.20;99.90
4757;DHT22;2392;52.578;13.426;2023-02-28T04:18:26;0.20;99.90
4757;DHT22;2392;52.578;13.426;2023-02-28T04:20:53;0.20;99.90
4757;DHT22;2392;52.578;13.426;2023-02-28T04:23:20;0.20;99.90
4757;DHT22;2392;52.578;13.426;2023-02-28T04:25:48;0.10;99.90
4757;DHT22;2392;52.578;13.426;2023-02-28T04:28:16;0.10;99.90
4757;DHT22;2392;52.578;13.426;2023-02-28T04:30:43;0.10;99.90
4757;DHT22;2392;52.578;13.426;2023-02-28T04:33:10;0.00;99.90
4757;DHT22;2392;52.578;13.426;2023-02-28T04:35:37;0.00;99.90
4757;DHT22;2392;52.578;13.426;2023-02-28T04:38:04;-0.10;99.90
4757;DHT22;2392;52.578;13.426;2023-02-28T04:40:31;-0.20;99.90
4757;DHT22;2392;52.578;13.426;2023-02-28T04:42:59;-0.20;99.90
4757;DHT22;2392;52.578;13.426;2023-02-28T04:45:26;-0.20;99.90
4757;DHT22;2392;52.578;13.426;2023-02-28T04:47:55;-0.20;99.90
4757;DHT22;2392;52.578;13.426;2023-02-28T04:50:22;-0.20;99.90
4757;DHT22;2392;52.578;13.426;2023-02-28T04:52:49;-0.20;99.90
4757;DHT22;2392;52.578;13.426;2023-02-28T04:55:16;-0.20;99.90
4757;DHT22;2392;52.578;13.426;2023-02-28T04:57:43;-0.30;99.90
4757;DHT22;2392;52.578;13.426;2023-02-28T05:00:12;-0.20;99.90
4757;DHT22;2392;52.578;13.426;2023-02-28T05:02:42;-0.20;99.90
4757;DHT22;2392;52.578;13.426;2023-02-28T05:05:09;-0.30;99.90
4757;DHT22;2392;52.578;13.426;2023-02-28T05:07:37;-0.30;99.90
4757;DHT22;2392;52.578;13.426;2023-02-28T05:10:05;-0.40;99.90
4757;DHT22;2392;52.578;13.426;2023-02-28T05:12:32;-0.40;99.90
4757;DHT22;2392;52.578;13.426;2023-02-28T05:14:59;-0.50;99.90
4757;DHT22;2392;52.578;13.426;2023-02-28T05:17:28;-0.50;99.90
4757;DHT22;2392;52.578;13.426;2023-02-28T05:19:55;-0.50;99.90
4757;DHT22;2392;52.578;13.426;2023-02-28T05:22:23;-0.50;99.90
4757;DHT22;2392;52.578;13.426;2023-02-28T05:24:50;-0.60;99.90
4757;DHT22;2392;52.578;13.426;2023-02-28T05:27:17;-0.60;99.90
4757;DHT22;2392;52.578;13.426;2023-02-28T05:29:44;-0.60;99.90
4757;DHT22;2392;52.578;13.426;2023-02-28T05:32:11;-0.60;99.90
4757;DHT22;2392;52.578;13.426;2023-02-28T05:34:40;-0.60;99.90
4757;DHT22;2392;52.578;13.426;2023-02-28T05:37:11;-0.70;99.90
4757;DHT22;2392;52.578;13.426;2023-02-28T05:39:39;-0.70;99.90
4757;DHT22;2392;52.578;13.426;2023-02-28T05:42:06;-0.70;99.90
4757;DHT22;2392;52.578;13.426;2023-02-28T05:44:35;-0.70;99.90
4757;DHT22;2392;52.578;13.426;2023-02-28T05:47:02;-0.70;99.90
4757;DHT22;2392;52.578;13.426;2023-02-28T05:49:29;-0.60;99.90
4757;DHT22;2392;52.578;13.426;2023-02-28T05:51:57;-0.70;99.90
4757;DHT22;2392;52.578;13.426;2023-02-28T05:54:24;-0.70;99.90
4757;DHT22;2392;52.578;13.426;2023-02-28T05:56:51;-0.60;99.90
4757;DHT22;2392;52.578;13.426;2023-02-28T05:59:18;-0.60;99.90
4757;DHT22;2392;52.578;13.426;2023-02-28T06:01:46;-0.50;99.90
4757;DHT22;2392;52.578;13.426;2023-02-28T06:04:15;-0.60;99.90
4757;DHT22;2392;52.578;13.426;2023-02-28T06:06:44;-0.50;99.90
4757;DHT22;2392;52.578;13.426;2023-02-28T06:09:13;-0.50;99.90
4757;DHT22;2392;52.578;13.426;2023-02-28T06:11:40;-0.50;99.90
4757;DHT22;2392;52.578;13.426;2023-02-28T06:14:09;-0.50;99.90
4757;DHT22;2392;52.578;13.426;2023-02-28T06:16:39;-0.40;99.90
4757;DHT22;2392;52.578;13.426;2023-02-28T06:19:07;-0.40;99.90
4757;DHT22;2392;52.578;13.426;2023-02-28T06:21:34;-0.50;99.90
4757;DHT22;2392;52.578;13.426;2023-02-28T06:24:01;-0.50;99.90
4757;DHT22;2392;52.578;13.426;2023-02-28T06:26:30;-0.50;99.90
4757;DHT22;2392;52.578;13.426;2023-02-28T06:28:57;-0.50;99.90
4757;DHT22;2392;52.578;13.426;2023-02-28T06:31:24;-0.50;99.90
4757;DHT22;2392;52.578;13.426;2023-02-28T06:33:51;-0.50;99.90
4757;DHT22;2392;52.578;13.426;2023-02-28T06:36:18;-0.50;99.90
4757;DHT22;2392;52.578;13.426;2023-02-28T06:38:45;-0.60;99.90
4757;DHT22;2392;52.578;13.426;2023-02-28T06:41:16;-0.50;99.90
4757;DHT22;2392;52.578;13.426;2023-02-28T06:43:45;-0.50;99.90
4757;DHT22;2392;52.578;13.426;2023-02-28T06:46:13;-0.50;99.90
4757;DHT22;2392;52.578;13.426;2023-02-28T06:48:40;-0.40;99.90
4757;DHT22;2392;52.578;13.426;2023-02-28T06:51:10;-0.40;99.90
4757;DHT22;2392;52.578;13.426;2023-02-28T06:53:37;-0.40;99.90
4757;DHT22;2392;52.578;13.426;2023-02-28T06:56:05;-0.40;99.90
4757;DHT22;2392;52.578;13.426;2023-02-28T06:58:33;-0.30;99.90
4757;DHT22;2392;52.578;13.426;2023-02-28T07:01:01;-0.30;99.90
4757;DHT22;2392;52.578;13.426;2023-02-28T07:03:29;-0.20;99.90
4757;DHT22;2392;52.578;13.426;2023-02-28T07:05:56;-0.20;99.90
4757;DHT22;2392;52.578;13.426;2023-02-28T07:08:23;-0.10;99.90
4757;DHT22;2392;52.578;13.426;2023-02-28T07:10:52;-0.10;99.90
4757;DHT22;2392;52.578;13.426;2023-02-28T07:13:19;0.00;99.90
4757;DHT22;2392;52.578;13.426;2023-02-28T07:15:53;0.00;99.90
4757;DHT22;2392;52.578;13.426;2023-02-28T07:18:22;0.10;99.90
4757;DHT22;2392;52.578;13.426;2023-02-28T07:20:49;0.20;99.90
4757;DHT22;2392;52.578;13.426;2023-02-28T07:23:16;0.20;99.90
4757;DHT22;2392;52.578;13.426;2023-02-28T07:25:44;0.30;99.90
4757;DHT22;2392;52.578;13.426;2023-02-28T07:28:11;0.30;99.90
4757;DHT22;2392;52.578;13.426;2023-02-28T07:30:39;0.40;99.90
4757;DHT22;2392;52.578;13.426;2023-02-28T07:33:06;0.40;99.90
4757;DHT22;2392;52.578;13.426;2023-02-28T07:35:35;0.50;99.90
4757;DHT22;2392;52.578;13.426;2023-02-28T07:38:02;0.50;99.90
4757;DHT22;2392;52.578;13.426;2023-02-28T07:40:29;0.60;99.90
4757;DHT22;2392;52.578;13.426;2023-02-28T07:42:57;0.70;99.90
4757;DHT22;2392;52.578;13.426;2023-02-28T07:45:25;0.70;99.90
4757;DHT22;2392;52.578;13.426;2023-02-28T07:47:54;0.80;99.90
4757;DHT22;2392;52.578;13.426;2023-02-28T07:50:21;0.80;99.90
4757;DHT22;2392;52.578;13.426;2023-02-28T07:52:50;0.90;99.90
4757;DHT22;2392;52.578;13.426;2023-02-28T07:55:17;1.00;99.90
4757;DHT22;2392;52.578;13.426;2023-02-28T07:57:44;1.00;99.90
4757;DHT22;2392;52.578;13.426;2023-02-28T08:00:12;1.10;99.90
4757;DHT22;2392;52.578;13.426;2023-02-28T08:02:40;1.10;99.90
4757;DHT22;2392;52.578;13.426;2023-02-28T08:05:07;1.20;99.90
4757;DHT22;2392;52.578;13.426;2023-02-28T08:07:34;1.20;99.90
4757;DHT22;2392;52.578;13.426;2023-02-28T08:10:03;1.30;99.90
4757;DHT22;2392;52.578;13.426;2023-02-28T08:12:32;1.30;99.90
4757;DHT22;2392;52.578;13.426;2023-02-28T08:14:59;1.40;99.90
4757;DHT22;2392;52.578;13.426;2023-02-28T08:17:26;1.50;99.90
4757;DHT22;2392;52.578;13.426;2023-02-28T08:19:53;1.60;99.90
4757;DHT22;2392;52.578;13.426;2023-02-28T08:22:20;1.70;99.90
4757;DHT22;2392;52.578;13.426;2023-02-28T08:24:47;1.70;99.90
4757;DHT22;2392;52.578;13.426;2023-02-28T08:27:16;1.80;99.90
4757;DHT22;2392;52.578;13.426;2023-02-28T08:29:43;1.90;99.90
4757;DHT22;2392;52.578;13.426;2023-02-28T08:32:10;1.90;99.90
4757;DHT22;2392;52.578;13.426;2023-02-28T08:34:39;2.00;99.90
4757;DHT22;2392;52.578;13.426;2023-02-28T08:37:06;2.10;99.90
4757;DHT22;2392;52.578;13.426;2023-02-28T08:39:34;2.20;99.90
4757;DHT22;2392;52.578;13.426;2023-02-28T08:42:01;2.30;99.90
4757;DHT22;2392;52.578;13.426;2023-02-28T08:44:30;2.40;99.90
4757;DHT22;2392;52.578;13.426;2023-02-28T08:46:57;2.50;99.90
4757;DHT22;2392;52.578;13.426;2023-02-28T08:49:24;2.60;99.90
4757;DHT22;2392;52.578;13.426;2023-02-28T08:51:51;2.60;99.90
4757;DHT22;2392;52.578;13.426;2023-02-28T08:54:18;2.70;99.90
4757;DHT22;2392;52.578;13.426;2023-02-28T08:56:45;2.80;99.90
4757;DHT22;2392;52.578;13.426;2023-02-28T08:59:13;2.90;99.90
4757;DHT22;2392;52.578;13.426;2023-02-28T09:01:41;3.00;99.90
4757;DHT22;2392;52.578;13.426;2023-02-28T09:04:09;3.10;99.90
4757;DHT22;2392;52.578;13.426;2023-02-28T09:06:37;3.20;99.90
4757;DHT22;2392;52.578;13.426;2023-02-28T09:09:04;3.40;99.90
4757;DHT22;2392;52.578;13.426;2023-02-28T09:11:34;3.40;99.90
4757;DHT22;2392;52.578;13.426;2023-02-28T09:14:01;3.50;99.90
4757;DHT22;2392;52.578;13.426;2023-02-28T09:16:29;3.60;99.90
4757;DHT22;2392;52.578;13.426;2023-02-28T09:18:58;3.70;99.90
4757;DHT22;2392;52.578;13.426;2023-02-28T09:21:26;3.80;99.90
4757;DHT22;2392;52.578;13.426;2023-02-28T09:23:53;3.80;99.90
4757;DHT22;2392;52.578;13.426;2023-02-28T09:26:23;3.90;99.90
4757;DHT22;2392;52.578;13.426;2023-02-28T09:28:51;4.00;99.90
4757;DHT22;2392;52.578;13.426;2023-02-28T09:31:20;4.00;99.90
4757;DHT22;2392;52.578;13.426;2023-02-28T09:33:48;4.10;99.90
4757;DHT22;2392;52.578;13.426;2023-02-28T09:36:16;4.20;99.90
4757;DHT22;2392;52.578;13.426;2023-02-28T09:38:44;4.20;99.90
4757;DHT22;2392;52.578;13.426;2023-02-28T09:41:14;4.30;99.90
4757;DHT22;2392;52.578;13.426;2023-02-28T09:43:44;4.40;99.90
4757;DHT22;2392;52.578;13.426;2023-02-28T09:46:25;4.40;99.90
4757;DHT22;2392;52.578;13.426;2023-02-28T09:48:54;4.40;99.90
4757;DHT22;2392;52.578;13.426;2023-02-28T09:51:38;4.60;99.90
4757;DHT22;2392;52.578;13.426;2023-02-28T09:54:13;4.70;99.90
4757;DHT22;2392;52.578;13.426;2023-02-28T09:56:45;4.90;99.90
4757;DHT22;2392;52.578;13.426;2023-02-28T09:59:23;5.20;99.60
4757;DHT22;2392;52.578;13.426;2023-02-28T10:01:57;5.70;99.90
4757;DHT22;2392;52.578;13.426;2023-02-28T10:04:37;6.30;99.30
4757;DHT22;2392;52.578;13.426;2023-02-28T10:07:17;7.00;99.20
4757;DHT22;2392;52.578;13.426;2023-02-28T10:09:47;7.90;97.40
4757;DHT22;2392;52.578;13.426;2023-02-28T10:12:16;8.60;95.90
4757;DHT22;2392;52.578;13.426;2023-02-28T10:14:45;9.40;94.30
4757;DHT22;2392;52.578;13.426;2023-02-28T10:17:16;10.00;92.60
4757;DHT22;2392;52.578;13.426;2023-02-28T10:19:54;10.80;91.30
4757;DHT22;2392;52.578;13.426;2023-02-28T10:22:26;11.20;86.50
4757;DHT22;2392;52.578;13.426;2023-02-28T10:24:56;11.90;85.60
4757;DHT22;2392;52.578;13.426;2023-02-28T10:27:29;12.30;81.30
4757;DHT22;2392;52.578;13.426;2023-02-28T10:29:58;12.90;80.70
4757;DHT22;2392;52.578;13.426;2023-02-28T10:32:28;13.40;77.10
4757;DHT22;2392;52.578;13.426;2023-02-28T10:34:59;14.00;76.20
4757;DHT22;2392;52.578;13.426;2023-02-28T10:37:28;14.50;73.20
4757;DHT22;2392;52.578;13.426;2023-02-28T10:39:57;14.70;70.20
4757;DHT22;2392;52.578;13.426;2023-02-28T10:42:25;15.40;74.10
4757;DHT22;2392;52.578;13.426;2023-02-28T10:45:11;15.80;68.10
4757;DHT22;2392;52.578;13.426;2023-02-28T10:47:49;16.30;66.90
4757;DHT22;2392;52.578;13.426;2023-02-28T10:50:37;17.10;63.30
4757;DHT22;2392;52.578;13.426;2023-02-28T10:53:17;17.50;64.50
4757;DHT22;2392;52.578;13.426;2023-02-28T10:55:57;17.70;60.00
4757;DHT22;2392;52.578;13.426;2023-02-28T10:58:27;17.90;57.70
4757;DHT22;2392;52.578;13.426;2023-02-28T11:00:55;17.90;55.70
4757;DHT22;2392;52.578;13.426;2023-02-28T11:03:31;18.20;56.30
4757;DHT22;2392;52.578;13.426;2023-02-28T11:06:03;18.40;56.40
4757;DHT22;2392;52.578;13.426;2023-02-28T11:08:32;18.00;55.30
4757;DHT22;2392;52.578;13.426;2023-02-28T11:11:04;18.10;55.30
4757;DHT22;2392;52.578;13.426;2023-02-28T11:13:34;17.60;53.60
4757;DHT22;2392;52.578;13.426;2023-02-28T11:16:05;18.10;56.90
4757;DHT22;2392;52.578;13.426;2023-02-28T11:18:38;18.80;55.30
4757;DHT22;2392;52.578;13.426;2023-02-28T11:21:08;18.90;54.60
4757;DHT22;2392;52.578;13.426;2023-02-28T11:23:40;18.50;53.70
4757;DHT22;2392;52.578;13.426;2023-02-28T11:26:08;19.00;52.80
4757;DHT22;2392;52.578;13.426;2023-02-28T11:28:39;19.20;51.60
4757;DHT22;2392;52.578;13.426;2023-02-28T11:31:17;18.80;50.70
4757;DHT22;2392;52.578;13.426;2023-02-28T11:33:47;19.00;50.60
4757;DHT22;2392;52.578;13.426;2023-02-28T11:36:19;18.50;50.50
4757;DHT22;2392;52.578;13.426;2023-02-28T11:38:48;18.20;51.30
4757;DHT22;2392;52.578;13.426;2023-02-28T11:41:40;18.60;51.00
4757;DHT22;2392;52.578;13.426;2023-02-28T11:44:28;18.50;53.30
4757;DHT22;2392;52.578;13.426;2023-02-28T11:47:03;18.40;51.20
4757;DHT22;2392;52.578;13.426;2023-02-28T11:49:40;18.40;50.90
4757;DHT22;2392;52.578;13.426;2023-02-28T11:52:19;18.70;50.80
4757;DHT22;2392;52.578;13.426;2023-02-28T11:55:05;18.80;51.10
4757;DHT22;2392;52.578;13.426;2023-02-28T11:57:48;19.10;50.80
4757;DHT22;2392;52.578;13.426;2023-02-28T12:00:32;18.80;50.20
4757;DHT22;2392;52.578;13.426;2023-02-28T12:03:11;18.90;50.40
4757;DHT22;2392;52.578;13.426;2023-02-28T12:05:44;18.90;50.10
4757;DHT22;2392;52.578;13.426;2023-02-28T12:08:26;18.60;50.30
4757;DHT22;2392;52.578;13.426;2023-02-28T12:11:06;18.90;50.00
4757;DHT22;2392;52.578;13.426;2023-02-28T12:13:45;19.00;49.80
4757;DHT22;2392;52.578;13.426;2023-02-28T12:19:20;19.40;50.80
4757;DHT22;2392;52.578;13.426;2023-02-28T12:22:15;19.20;49.50
4757;DHT22;2392;52.578;13.426;2023-02-28T12:25:00;18.20;49.00
4757;DHT22;2392;52.578;13.426;2023-02-28T12:27:34;17.70;50.00
4757;DHT22;2392;52.578;13.426;2023-02-28T12:30:04;17.50;51.70
4757;DHT22;2392;52.578;13.426;2023-02-28T12:32:36;17.80;53.50
4757;DHT22;2392;52.578;13.426;2023-02-28T12:35:11;18.20;50.90
4757;DHT22;2392;52.578;13.426;2023-02-28T12:37:41;18.20;50.50
4757;DHT22;2392;52.578;13.426;2023-02-28T12:40:13;18.10;51.70
4757;DHT22;2392;52.578;13.426;2023-02-28T12:42:46;17.90;51.10
4757;DHT22;2392;52.578;13.426;2023-02-28T12:45:18;17.60;52.00
4757;DHT22;2392;52.578;13.426;2023-02-28T12:47:49;17.10;50.90
4757;DHT22;2392;52.578;13.426;2023-02-28T12:50:18;16.60;52.00
4757;DHT22;2392;52.578;13.426;2023-02-28T12:52:51;16.20;53.20
4757;DHT22;2392;52.578;13.426;2023-02-28T12:55:25;16.40;53.20
4757;DHT22;2392;52.578;13.426;2023-02-28T12:58:01;16.00;53.70
4757;DHT22;2392;52.578;13.426;2023-02-28T13:00:35;16.30;53.00
4757;DHT22;2392;52.578;13.426;2023-02-28T13:03:27;16.30;51.80
4757;DHT22;2392;52.578;13.426;2023-02-28T13:06:20;16.10;52.30
4757;DHT22;2392;52.578;13.426;2023-02-28T13:09:02;15.90;51.60
4757;DHT22;2392;52.578;13.426;2023-02-28T13:11:32;15.90;52.60
4757;DHT22;2392;52.578;13.426;2023-02-28T13:14:04;15.70;53.00
4757;DHT22;2392;52.578;13.426;2023-02-28T13:16:54;15.70;52.70
4757;DHT22;2392;52.578;13.426;2023-02-28T13:19:22;15.70;52.50
4757;DHT22;2392;52.578;13.426;2023-02-28T13:21:51;15.60;52.10
4757;DHT22;2392;52.578;13.426;2023-02-28T13:24:41;15.70;51.80
4757;DHT22;2392;52.578;13.426;2023-02-28T13:27:37;15.60;52.80
4757;DHT22;2392;52.578;13.426;2023-02-28T13:33:29;15.60;52.20
4757;DHT22;2392;52.578;13.426;2023-02-28T13:36:07;15.50;52.30
4757;DHT22;2392;52.578;13.426;2023-02-28T13:38:40;15.30;53.70
4757;DHT22;2392;52.578;13.426;2023-02-28T13:41:45;15.00;54.40
4757;DHT22;2392;52.578;13.426;2023-02-28T13:44:15;14.50;53.00
4757;DHT22;2392;52.578;13.426;2023-02-28T13:47:19;14.20;52.30
4757;DHT22;2392;52.578;13.426;2023-02-28T13:49:49;14.00;53.50
4757;DHT22;2392;52.578;13.426;2023-02-28T13:52:20;13.70;53.90
4757;DHT22;2392;52.578;13.426;2023-02-28T13:55:24;13.30;54.30
4757;DHT22;2392;52.578;13.426;2023-02-28T13:58:20;12.50;55.40
4757;DHT22;2392;52.578;13.426;2023-02-28T14:01:22;12.10;55.90
4757;DHT22;2392;52.578;13.426;2023-02-28T14:06:48;11.20;57.00
4757;DHT22;2392;52.578;13.426;2023-02-28T14:09:21;11.00;56.70
4757;DHT22;2392;52.578;13.426;2023-02-28T14:11:50;10.50;57.40
4757;DHT22;2392;52.578;13.426;2023-02-28T14:14:55;10.30;57.70
4757;DHT22;2392;52.578;13.426;2023-02-28T14:17:24;9.90;59.30
4757;DHT22;2392;52.578;13.426;2023-02-28T14:19:52;9.70;59.90
4757;DHT22;2392;52.578;13.426;2023-02-28T14:22:39;9.40;60.70
4757;DHT22;2392;52.578;13.426;2023-02-28T14:25:18;9.20;61.60
4757;DHT22;2392;52.578;13.426;2023-02-28T14:27:50;8.90;61.60
4757;DHT22;2392;52.578;13.426;2023-02-28T14:30:43;8.80;63.00
4757;DHT22;2392;52.578;13.426;2023-02-28T14:33:26;8.60;62.20
4757;DHT22;2392;52.578;13.426;2023-02-28T14:36:08;8.50;62.40
4757;DHT22;2392;52.578;13.426;2023-02-28T14:38:42;8.40;63.40
4757;DHT22;2392;52.578;13.426;2023-02-28T14:41:16;8.30;63.00
4757;DHT22;2392;52.578;13.426;2023-02-28T14:43:51;8.20;63.80
4757;DHT22;2392;52.578;13.426;2023-02-28T14:46:19;8.20;64.50
4757;DHT22;2392;52.578;13.426;2023-02-28T14:48:47;8.10;64.80
4757;DHT22;2392;52.578;13.426;2023-02-28T14:51:19;8.00;64.50
4757;DHT22;2392;52.578;13.426;2023-02-28T14:53:51;8.00;66.00
4757;DHT22;2392;52.578;13.426;2023-02-28T14:56:24;8.00;65.10
4757;DHT22;2392;52.578;13.426;2023-02-28T14:58:52;8.00;64.80
4757;DHT22;2392;52.578;13.426;2023-02-28T15:01:20;7.90;64.30
4757;DHT22;2392;52.578;13.426;2023-02-28T15:03:48;7.90;64.20
4757;DHT22;2392;52.578;13.426;2023-02-28T15:06:23;7.80;65.40
4757;DHT22;2392;52.578;13.426;2023-02-28T15:09:13;7.80;66.30
4757;DHT22;2392;52.578;13.426;2023-02-28T15:11:41;7.80;65.90
4757;DHT22;2392;52.578;13.426;2023-02-28T15:14:15;7.70;66.50
4757;DHT22;2392;52.578;13.426;2023-02-28T15:16:46;7.70;66.60
4757;DHT22;2392;52.578;13.426;2023-02-28T15:19:19;7.60;66.80
4757;DHT22;2392;52.578;13.426;2023-02-28T15:21:49;7.60;66.90
4757;DHT22;2392;52.578;13.426;2023-02-28T15:24:21;7.50;66.90
4757;DHT22;2392;52.578;13.426;2023-02-28T15:26:54;7.50;66.70
4757;DHT22;2392;52.578;13.426;2023-02-28T15:29:25;7.40;67.90
4757;DHT22;2392;52.578;13.426;2023-02-28T15:31:56;7.30;68.00
4757;DHT22;2392;52.578;13.426;2023-02-28T15:34:29;7.30;68.10
4757;DHT22;2392;52.578;13.426;2023-02-28T15:37:00;7.30;69.00
4757;DHT22;2392;52.578;13.426;2023-02-28T15:39:29;7.20;68.30
4757;DHT22;2392;52.578;13.426;2023-02-28T15:42:11;7.20;68.70
4757;DHT22;2392;52.578;13.426;2023-02-28T15:44:38;7.20;69.50
4757;DHT22;2392;52.578;13.426;2023-02-28T15:47:11;7.20;69.60
4757;DHT22;2392;52.578;13.426;2023-02-28T15:49:46;7.10;70.30
4757;DHT22;2392;52.578;13.426;2023-02-28T15:52:16;7.10;69.60
4757;DHT22;2392;52.578;13.426;2023-02-28T15:54:45;7.10;70.10
4757;DHT22;2392;52.578;13.426;2023-02-28T15:57:15;7.00;71.40
4757;DHT22;2392;52.578;13.426;2023-02-28T15:59:50;7.00;71.20
4757;DHT22;2392;52.578;13.426;2023-02-28T16:02:19;6.90;70.80
4757;DHT22;2392;52.578;13.426;2023-02-28T16:07:43;6.80;70.80
4757;DHT22;2392;52.578;13.426;2023-02-28T16:10:13;6.70;71.90
4757;DHT22;2392;52.578;13.426;2023-02-28T16:12:41;6.70;72.00
4757;DHT22;2392;52.578;13.426;2023-02-28T16:15:19;6.70;72.70
4757;DHT22;2392;52.578;13.426;2023-02-28T16:17:46;6.70;72.60
4757;DHT22;2392;52.578;13.426;2023-02-28T16:20:14;6.60;71.70
4757;DHT22;2392;52.578;13.426;2023-02-28T16:22:42;6.60;71.70
4757;DHT22;2392;52.578;13.426;2023-02-28T16:25:13;6.60;71.70
4757;DHT22;2392;52.578;13.426;2023-02-28T16:27:40;6.50;72.10
4757;DHT22;2392;52.578;13.426;2023-02-28T16:30:16;6.50;72.40
4757;DHT22;2392;52.578;13.426;2023-02-28T16:32:44;6.40;71.90
4757;DHT22;2392;52.578;13.426;2023-02-28T16:35:11;6.40;73.20
4757;DHT22;2392;52.578;13.426;2023-02-28T16:37:39;6.30;72.60
4757;DHT22;2392;52.578;13.426;2023-02-28T16:40:09;6.30;73.10
4757;DHT22;2392;52.578;13.426;2023-02-28T16:42:42;6.30;72.80
4757;DHT22;2392;52.578;13.426;2023-02-28T16:45:18;6.20;73.20